createdAt,value
2023-03-10T00:02:05.619Z,12.82
2023-03-10T00:04:35.429Z,9.50
2023-03-10T00:07:04.137Z,11.55
2023-03-10T00:09:33.063Z,12.73
2023-03-10T00:12:04.181Z,5.18
2023-03-10T00:14:36.550Z,8.55
2023-03-10T00:17:07.340Z,5.60
2023-03-10T00:19:36.884Z,10.43
2023-03-10T00:22:05.547Z,8.18
2023-03-10T00:24:36.285Z,10.43
2023-03-10T00:27:07.059Z,5.50
2023-03-10T00:29:35.798Z,9.75
2023-03-10T00:32:04.280Z,5.95
2023-03-10T00:34:34.031Z,7.95
2023-03-10T00:37:05.622Z,10.00
2023-03-10T00:39:35.101Z,7.75
2023-03-10T00:42:06.515Z,9.93
2023-03-10T00:44:35.566Z,4.38
2023-03-10T00:47:05.394Z,10.93
2023-03-10T00:49:34.233Z,8.30
2023-03-10T00:52:03.017Z,6.97
2023-03-10T00:54:32.124Z,5.35
2023-03-10T00:57:03.308Z,6.90
2023-03-10T00:59:49.237Z,1.70
2023-03-10T01:02:22.458Z,5.47
2023-03-10T01:04:54.673Z,5.68
2023-03-10T01:07:23.806Z,3.60
2023-03-10T01:09:55.552Z,2.47
2023-03-10T01:12:24.431Z,2.75
2023-03-10T01:14:53.155Z,6.60
2023-03-10T01:17:24.041Z,1.15
2023-03-10T01:19:52.695Z,2.30
2023-03-10T01:22:23.364Z,1.85
2023-03-10T01:24:52.978Z,2.38
2023-03-10T01:27:22.072Z,1.10
2023-03-10T01:29:50.748Z,1.73
2023-03-10T01:32:19.597Z,3.53
2023-03-10T01:34:48.032Z,2.17
2023-03-10T01:37:16.928Z,1.90
2023-03-10T01:39:45.569Z,1.15
2023-03-10T01:42:15.085Z,0.77
2023-03-10T01:44:43.939Z,1.23
2023-03-10T01:47:13.469Z,1.35
2023-03-10T01:49:42.864Z,0.77
2023-03-10T01:52:13.785Z,3.70
2023-03-10T01:54:49.483Z,1.45
2023-03-10T01:57:20.013Z,2.83
2023-03-10T01:59:48.463Z,3.75
2023-03-10T02:02:18.722Z,4.78
2023-03-10T02:04:51.434Z,2.70
2023-03-10T02:07:25.740Z,3.45
2023-03-10T02:09:55.463Z,2.97
2023-03-10T02:12:27.246Z,1.85
2023-03-10T02:14:58.456Z,2.85
2023-03-10T02:17:33.078Z,2.97
2023-03-10T02:20:08.226Z,1.85
2023-03-10T02:22:41.271Z,3.60
2023-03-10T02:25:10.134Z,2.33
2023-03-10T02:27:41.321Z,2.85
2023-03-10T02:30:15.603Z,3.63
2023-03-10T02:32:59.974Z,6.20
2023-03-10T02:35:31.539Z,7.03
2023-03-10T02:38:06.381Z,8.38
2023-03-10T02:40:44.218Z,9.90
2023-03-10T02:43:23.509Z,4.28
2023-03-10T02:45:58.117Z,3.67
2023-03-10T02:48:35.688Z,5.45
2023-03-10T02:51:09.263Z,2.65
2023-03-10T02:53:40.146Z,7.75
2023-03-10T02:56:08.857Z,4.43
2023-03-10T02:58:41.364Z,2.55
2023-03-10T03:01:13.823Z,2.53
2023-03-10T03:03:46.491Z,3.30
2023-03-10T03:06:15.878Z,1.25
2023-03-10T03:08:46.257Z,2.65
2023-03-10T03:11:18.107Z,4.80
2023-03-10T03:13:50.176Z,3.58
2023-03-10T03:16:19.844Z,2.42
2023-03-10T03:18:51.858Z,4.22
2023-03-10T03:21:22.828Z,3.13
2023-03-10T03:23:51.974Z,6.40
2023-03-10T03:26:24.421Z,1.52
2023-03-10T03:28:58.897Z,6.40
2023-03-10T03:31:33.552Z,4.55
2023-03-10T03:34:16.653Z,6.55
2023-03-10T03:39:23.921Z,6.38
2023-03-10T03:41:57.710Z,4.57
2023-03-10T03:44:32.922Z,2.65
2023-03-10T03:47:05.316Z,6.15
2023-03-10T03:49:35.396Z,5.07
2023-03-10T03:52:04.924Z,7.28
2023-03-10T03:54:36.851Z,5.00
2023-03-10T03:57:08.184Z,8.80
2023-03-10T03:59:37.265Z,9.70
2023-03-10T04:02:05.954Z,5.18
2023-03-10T04:04:35.065Z,5.75
2023-03-10T04:07:07.012Z,9.90
2023-03-10T04:09:36.246Z,9.00
2023-03-10T04:12:04.772Z,6.10
2023-03-10T04:14:37.254Z,6.80
2023-03-10T04:17:06.118Z,6.55
2023-03-10T04:19:35.213Z,5.63
2023-03-10T04:22:08.977Z,2.08
2023-03-10T04:24:41.493Z,7.47
2023-03-10T04:27:13.001Z,4.35
2023-03-10T04:29:44.982Z,4.20
2023-03-10T04:32:14.181Z,10.38
2023-03-10T04:34:44.201Z,13.32
2023-03-10T04:37:13.239Z,8.77
2023-03-10T04:39:41.622Z,4.07
2023-03-10T04:42:10.061Z,3.50
2023-03-10T04:44:41.654Z,3.83
2023-03-10T04:47:10.067Z,2.97
2023-03-10T04:49:40.069Z,8.43
2023-03-10T04:52:14.325Z,7.05
2023-03-10T04:54:44.014Z,4.97
2023-03-10T04:57:12.644Z,2.80
2023-03-10T04:59:46.527Z,6.80
2023-03-10T05:02:16.608Z,3.80
2023-03-10T05:04:48.047Z,5.03
2023-03-10T05:07:16.707Z,11.98
2023-03-10T05:09:50.990Z,10.88
2023-03-10T05:12:22.502Z,5.43
2023-03-10T05:14:51.265Z,5.95
2023-03-10T05:17:24.607Z,6.47
2023-03-10T05:19:53.032Z,6.88
2023-03-10T05:22:21.693Z,11.20
2023-03-10T05:24:50.857Z,15.30
2023-03-10T05:27:22.841Z,9.10
2023-03-10T05:29:54.995Z,8.23
2023-03-10T05:32:27.712Z,10.52
2023-03-10T05:34:56.505Z,6.15
2023-03-10T05:37:28.278Z,15.38
2023-03-10T05:39:59.303Z,12.90
2023-03-10T05:42:33.279Z,8.13
2023-03-10T05:45:01.928Z,15.10
2023-03-10T05:47:42.735Z,12.18
2023-03-10T05:50:11.791Z,8.02
2023-03-10T05:52:43.230Z,12.18
2023-03-10T05:55:13.464Z,11.75
2023-03-10T05:57:42.961Z,9.43
2023-03-10T06:00:12.361Z,10.60
2023-03-10T06:03:08.911Z,10.90
2023-03-10T06:05:37.666Z,17.27
2023-03-10T06:08:06.207Z,10.55
2023-03-10T06:10:35.036Z,9.75
2023-03-10T06:13:03.353Z,16.70
2023-03-10T06:15:32.938Z,8.05
2023-03-10T06:18:01.466Z,5.65
2023-03-10T06:20:31.690Z,10.30
2023-03-10T06:23:03.076Z,8.20
2023-03-10T06:25:33.406Z,15.85
2023-03-10T06:28:07.690Z,8.90
2023-03-10T06:30:38.646Z,6.93
2023-03-10T06:33:28.218Z,10.38
2023-03-10T06:35:59.189Z,13.18
2023-03-10T06:38:28.293Z,5.68
2023-03-10T06:40:56.868Z,13.20
2023-03-10T06:43:25.709Z,13.25
2023-03-10T06:45:54.037Z,9.45
2023-03-10T06:48:23.157Z,7.43
2023-03-10T06:50:52.196Z,10.23
2023-03-10T06:53:23.337Z,12.90
2023-03-10T06:56:00.007Z,12.75
2023-03-10T06:58:30.065Z,12.07
2023-03-10T07:00:58.998Z,9.65
2023-03-10T07:03:44.595Z,13.63
2023-03-10T07:06:16.640Z,9.68
2023-03-10T07:08:46.745Z,14.10
2023-03-10T07:11:16.203Z,9.30
2023-03-10T07:13:48.008Z,10.43
2023-03-10T07:16:24.013Z,10.57
2023-03-10T07:18:54.675Z,13.98
2023-03-10T07:21:26.153Z,10.43
2023-03-10T07:23:54.744Z,11.27
2023-03-10T07:26:25.875Z,10.02
2023-03-10T07:28:54.288Z,12.50
2023-03-10T07:31:26.200Z,17.05
2023-03-10T07:34:06.907Z,11.05
2023-03-10T07:36:38.149Z,9.07
2023-03-10T07:39:07.102Z,6.75
2023-03-10T07:41:36.306Z,12.35
2023-03-10T07:44:05.626Z,6.88
2023-03-10T07:46:34.868Z,9.25
2023-03-10T07:49:05.616Z,21.95
2023-03-10T07:51:34.126Z,12.52
2023-03-10T07:54:03.019Z,10.55
2023-03-10T07:56:34.307Z,9.07
2023-03-10T07:59:02.907Z,16.45
2023-03-10T08:01:32.530Z,13.90
2023-03-10T08:04:08.265Z,5.85
2023-03-10T08:06:38.168Z,10.93
2023-03-10T08:09:06.505Z,14.70
2023-03-10T08:11:36.878Z,15.00
2023-03-10T08:14:05.942Z,16.88
2023-03-10T08:16:36.745Z,9.35
2023-03-10T08:19:07.686Z,11.88
2023-03-10T08:21:36.353Z,7.00
2023-03-10T08:24:06.263Z,9.57
2023-03-10T08:26:37.373Z,13.20
2023-03-10T08:29:06.633Z,13.10
2023-03-10T08:31:35.324Z,8.63
2023-03-10T08:34:06.044Z,25.95
2023-03-10T08:36:35.290Z,15.68
2023-03-10T08:39:05.726Z,17.10
2023-03-10T08:41:39.836Z,13.00
2023-03-10T08:44:11.723Z,14.05
2023-03-10T08:49:15.658Z,13.38
2023-03-10T08:51:47.173Z,8.68
2023-03-10T08:54:19.771Z,9.20
2023-03-10T08:56:48.303Z,14.43
2023-03-10T08:59:16.697Z,16.58
2023-03-10T09:01:45.152Z,16.75
2023-03-10T09:04:14.134Z,12.32
2023-03-10T09:06:42.978Z,8.18
2023-03-10T09:09:13.091Z,10.82
2023-03-10T09:11:44.588Z,12.05
2023-03-10T09:14:17.553Z,14.80
2023-03-10T09:16:49.520Z,9.68
2023-03-10T09:19:18.969Z,16.83
2023-03-10T09:21:47.803Z,19.90
2023-03-10T09:24:17.951Z,13.05
2023-03-10T09:26:47.154Z,12.80
2023-03-10T09:29:17.089Z,12.85
2023-03-10T09:31:52.484Z,22.65
2023-03-10T09:34:20.700Z,22.63
2023-03-10T09:36:49.633Z,12.10
2023-03-10T09:39:17.955Z,11.20
2023-03-10T09:41:52.818Z,24.23
2023-03-10T09:44:42.679Z,19.42
2023-03-10T09:47:11.192Z,8.23
2023-03-10T09:49:51.702Z,6.20
2023-03-10T09:52:22.947Z,8.48
2023-03-10T09:55:05.310Z,13.48
2023-03-10T09:57:35.364Z,14.07
2023-03-10T10:00:09.256Z,16.85
2023-03-10T10:03:13.081Z,15.20
2023-03-10T10:05:44.867Z,11.73
2023-03-10T10:08:27.277Z,10.20
2023-03-10T10:10:59.334Z,8.63
2023-03-10T10:13:30.494Z,11.95
2023-03-10T10:16:33.499Z,12.88
2023-03-10T10:19:16.077Z,8.80
2023-03-10T10:22:00.242Z,13.18
2023-03-10T10:27:01.132Z,8.70
2023-03-10T10:29:36.656Z,12.00
2023-03-10T10:32:06.844Z,12.30
2023-03-10T10:34:37.713Z,7.28
2023-03-10T10:37:22.253Z,11.02
2023-03-10T10:39:51.826Z,5.60
2023-03-10T10:42:24.627Z,11.70
2023-03-10T10:44:54.226Z,8.07
2023-03-10T10:47:27.401Z,10.75
2023-03-10T10:50:17.988Z,8.80
2023-03-10T10:52:49.845Z,10.23
2023-03-10T10:55:47.562Z,10.73
2023-03-10T10:58:26.817Z,8.07
2023-03-10T11:01:01.030Z,3.72
2023-03-10T11:03:41.876Z,4.18
2023-03-10T11:06:15.728Z,7.82
2023-03-10T11:08:50.683Z,15.63
2023-03-10T11:11:20.019Z,14.32
2023-03-10T11:13:55.930Z,14.02
2023-03-10T11:16:48.026Z,3.85
2023-03-10T11:19:23.360Z,6.53
2023-03-10T11:21:57.268Z,5.53
2023-03-10T11:27:00.295Z,4.85
2023-03-10T11:29:52.316Z,3.30
2023-03-10T11:34:53.927Z,2.38
2023-03-10T11:37:24.501Z,0.55
2023-03-10T11:40:15.922Z,2.38
2023-03-10T11:42:56.410Z,0.30
2023-03-10T11:45:34.328Z,3.22
2023-03-10T11:48:15.971Z,3.30
2023-03-10T11:50:50.266Z,5.30
2023-03-10T11:53:24.561Z,2.35
2023-03-10T11:55:53.709Z,2.40
2023-03-10T11:58:37.295Z,6.70
2023-03-10T12:03:39.536Z,4.60
2023-03-10T12:06:10.044Z,4.05
2023-03-10T12:08:39.054Z,1.40
2023-03-10T12:11:15.371Z,2.05
2023-03-10T12:13:47.480Z,0.63
2023-03-10T12:16:19.164Z,2.17
2023-03-10T12:18:48.927Z,5.57
2023-03-10T12:21:24.994Z,2.20
2023-03-10T12:23:54.598Z,1.55
2023-03-10T12:26:40.930Z,1.83
2023-03-10T12:29:24.193Z,9.38
2023-03-10T12:31:53.648Z,6.53
2023-03-10T12:34:24.150Z,3.38
2023-03-10T12:36:53.635Z,5.15
2023-03-10T12:39:22.049Z,4.57
2023-03-10T12:41:54.698Z,3.25
2023-03-10T12:44:52.153Z,3.78
2023-03-10T12:47:31.979Z,3.25
2023-03-10T12:50:06.420Z,3.55
2023-03-10T12:52:36.359Z,3.55
2023-03-10T12:55:04.564Z,3.90
2023-03-10T12:57:45.746Z,0.68
2023-03-10T13:00:34.660Z,10.17
2023-03-10T13:03:05.818Z,1.00
2023-03-10T13:05:35.641Z,4.85
2023-03-10T13:08:21.233Z,2.15
2023-03-10T13:10:56.518Z,1.27
2023-03-10T13:13:28.129Z,9.63
2023-03-10T13:16:04.105Z,4.47
2023-03-10T13:18:35.863Z,2.20
2023-03-10T13:21:04.402Z,1.40
2023-03-10T13:23:36.287Z,2.88
2023-03-10T13:26:04.998Z,3.00
2023-03-10T13:28:36.590Z,1.60
2023-03-10T13:31:14.587Z,2.45
2023-03-10T13:33:53.781Z,0.93
2023-03-10T13:36:22.611Z,3.45
2023-03-10T13:38:53.089Z,0.57
2023-03-10T13:41:21.405Z,1.23
2023-03-10T13:43:55.612Z,0.82
2023-03-10T13:46:28.454Z,2.38
2023-03-10T13:49:03.796Z,2.65
2023-03-10T13:51:33.156Z,3.33
2023-03-10T13:54:12.911Z,6.18
2023-03-10T13:56:42.525Z,4.07
2023-03-10T13:59:19.052Z,2.58
2023-03-10T14:01:53.417Z,1.48
2023-03-10T14:04:55.422Z,1.20
2023-03-10T14:07:28.827Z,1.55
2023-03-10T14:10:06.291Z,2.28
2023-03-10T14:12:40.436Z,1.20
2023-03-10T14:15:20.737Z,1.45
2023-03-10T14:17:50.364Z,1.10
2023-03-10T14:20:31.710Z,0.77
2023-03-10T14:23:00.588Z,3.63
2023-03-10T14:25:35.426Z,1.58
2023-03-10T14:28:12.730Z,1.20
2023-03-10T14:30:44.953Z,5.43
2023-03-10T14:33:28.447Z,4.57
2023-03-10T14:35:59.798Z,1.65
2023-03-10T14:38:37.156Z,2.38
2023-03-10T14:41:06.164Z,2.08
2023-03-10T14:43:40.309Z,2.10
2023-03-10T14:46:12.881Z,2.67
2023-03-10T14:48:45.926Z,7.18
2023-03-10T14:51:32.450Z,5.60
2023-03-10T14:54:03.837Z,2.70
2023-03-10T14:56:38.996Z,2.25
2023-03-10T14:59:08.397Z,1.52
2023-03-10T15:01:42.881Z,1.73
2023-03-10T15:04:16.373Z,2.17
2023-03-10T15:06:48.947Z,3.83
2023-03-10T15:09:17.333Z,2.15
2023-03-10T15:11:49.084Z,2.90
2023-03-10T15:14:23.599Z,3.80
2023-03-10T15:16:55.437Z,3.40
2023-03-10T15:19:30.744Z,7.78
2023-03-10T15:21:59.285Z,4.82
2023-03-10T15:24:30.348Z,18.85
2023-03-10T15:26:59.501Z,4.65
2023-03-10T15:29:27.894Z,4.20
2023-03-10T15:31:58.069Z,4.07
2023-03-10T15:34:26.813Z,15.70
2023-03-10T15:36:56.565Z,2.70
2023-03-10T15:39:32.164Z,11.90
2023-03-10T15:42:02.299Z,4.57
2023-03-10T15:44:36.644Z,6.28
2023-03-10T15:47:06.081Z,2.40
2023-03-10T15:49:34.480Z,3.63
2023-03-10T15:52:03.497Z,4.07
2023-03-10T15:54:36.608Z,2.75
2023-03-10T15:57:05.121Z,3.67
2023-03-10T15:59:35.470Z,5.07
2023-03-10T16:02:05.291Z,2.92
2023-03-10T16:04:37.544Z,3.08
2023-03-10T16:07:06.928Z,2.67
2023-03-10T16:09:35.904Z,2.55
2023-03-10T16:12:04.391Z,2.33
2023-03-10T16:14:34.373Z,2.83
2023-03-10T16:17:02.731Z,4.13
2023-03-10T16:19:31.518Z,1.50
2023-03-10T16:21:59.935Z,2.25
2023-03-10T16:24:28.344Z,5.72
2023-03-10T16:26:56.623Z,8.23
2023-03-10T16:29:27.081Z,2.47
2023-03-10T16:31:56.002Z,1.90
2023-03-10T16:34:25.400Z,1.17
2023-03-10T16:36:54.464Z,1.60
2023-03-10T16:39:27.176Z,2.05
2023-03-10T16:41:56.164Z,2.60
2023-03-10T16:44:24.908Z,2.20
2023-03-10T16:46:53.244Z,2.85
2023-03-10T16:49:21.936Z,2.30
2023-03-10T16:51:50.630Z,3.13
2023-03-10T16:54:22.746Z,4.30
2023-03-10T16:56:52.229Z,2.20
2023-03-10T16:59:26.042Z,2.50
2023-03-10T17:01:54.634Z,2.45
2023-03-10T17:04:23.341Z,3.85
2023-03-10T17:06:52.081Z,7.20
2023-03-10T17:09:20.672Z,8.50
2023-03-10T17:11:54.921Z,5.75
2023-03-10T17:14:24.125Z,5.70
2023-03-10T17:16:54.752Z,10.85
2023-03-10T17:19:28.788Z,7.10
2023-03-10T17:21:58.180Z,11.63
2023-03-10T17:24:31.289Z,9.02
2023-03-10T17:27:00.219Z,6.65
2023-03-10T17:29:30.862Z,7.95
2023-03-10T17:32:00.567Z,7.50
2023-03-10T17:34:31.957Z,8.18
2023-03-10T17:37:02.684Z,5.65
2023-03-10T17:39:37.417Z,5.38
2023-03-10T17:44:36.586Z,5.97
2023-03-10T17:47:05.541Z,6.88
2023-03-10T17:49:37.398Z,9.90
2023-03-10T17:52:08.477Z,11.18
2023-03-10T17:54:37.046Z,10.63
2023-03-10T17:57:08.230Z,7.13
2023-03-10T17:59:39.120Z,14.80
2023-03-10T18:02:07.922Z,8.68
2023-03-10T18:04:40.426Z,10.18
2023-03-10T18:07:08.571Z,11.35
2023-03-10T18:09:37.044Z,11.38
2023-03-10T18:12:06.080Z,14.10
2023-03-10T18:14:35.746Z,13.88
2023-03-10T18:17:05.947Z,10.60
2023-03-10T18:19:34.633Z,18.23
2023-03-10T18:22:05.788Z,13.90
2023-03-10T18:24:34.113Z,13.45
2023-03-10T18:27:02.683Z,12.95
2023-03-10T18:29:32.819Z,8.82
2023-03-10T18:32:02.206Z,13.95
2023-03-10T18:34:33.200Z,12.68
2023-03-10T18:37:01.552Z,7.90
2023-03-10T18:39:31.731Z,10.07
2023-03-10T18:42:00.774Z,10.65
2023-03-10T18:44:37.814Z,13.45
2023-03-10T18:47:06.227Z,12.38
2023-03-10T18:49:35.574Z,16.38
2023-03-10T18:52:04.258Z,12.90
2023-03-10T18:54:34.285Z,11.75
2023-03-10T18:57:02.654Z,15.98
2023-03-10T18:59:34.658Z,7.80
2023-03-10T19:02:08.390Z,8.00
2023-03-10T19:04:38.181Z,6.88
2023-03-10T19:07:11.096Z,8.43
2023-03-10T19:09:42.977Z,7.43
2023-03-10T19:12:11.815Z,6.93
2023-03-10T19:14:41.487Z,9.10
2023-03-10T19:17:11.795Z,12.48
2023-03-10T19:19:42.537Z,11.23
2023-03-10T19:22:11.738Z,10.45
2023-03-10T19:24:40.295Z,18.20
2023-03-10T19:27:08.880Z,7.50
2023-03-10T19:29:37.182Z,6.80
2023-03-10T19:32:07.513Z,6.28
2023-03-10T19:34:36.408Z,10.15
2023-03-10T19:37:05.019Z,6.10
2023-03-10T19:39:35.493Z,5.18
2023-03-10T19:42:03.799Z,7.65
2023-03-10T19:44:33.173Z,6.55
2023-03-10T19:47:02.068Z,7.97
2023-03-10T19:49:34.206Z,5.35
2023-03-10T19:52:02.926Z,4.63
2023-03-10T19:54:32.844Z,6.10
2023-03-10T19:57:01.270Z,8.10
2023-03-10T19:59:37.458Z,4.28
2023-03-10T20:02:06.371Z,5.18
2023-03-10T20:04:39.689Z,9.15
2023-03-10T20:07:08.245Z,5.32
2023-03-10T20:09:41.484Z,7.15
2023-03-10T20:12:12.192Z,9.43
2023-03-10T20:14:40.605Z,6.80
2023-03-10T20:17:09.339Z,5.35
2023-03-10T20:19:41.470Z,5.93
2023-03-10T20:22:15.223Z,9.63
2023-03-10T20:24:44.657Z,5.35
2023-03-10T20:27:16.113Z,19.50
2023-03-10T20:29:45.058Z,6.32
2023-03-10T20:32:15.945Z,6.00
2023-03-10T20:34:44.648Z,6.22
2023-03-10T20:37:15.649Z,9.57
2023-03-10T20:39:46.433Z,5.32
2023-03-10T20:42:14.945Z,8.13
2023-03-10T20:44:43.464Z,5.78
2023-03-10T20:47:12.086Z,5.93
2023-03-10T20:49:40.810Z,5.97
2023-03-10T20:52:12.222Z,6.57
2023-03-10T20:54:41.182Z,8.57
2023-03-10T20:57:12.127Z,7.03
2023-03-10T20:59:40.700Z,11.60
2023-03-10T21:02:16.116Z,10.18
2023-03-10T21:04:47.719Z,15.07
2023-03-10T21:07:16.284Z,7.93
2023-03-10T21:09:46.955Z,8.45
2023-03-10T21:12:21.096Z,8.90
2023-03-10T21:14:52.470Z,7.97
2023-03-10T21:17:23.026Z,11.68
2023-03-10T21:19:52.200Z,14.60
2023-03-10T21:22:23.116Z,12.90
2023-03-10T21:24:53.166Z,15.00
2023-03-10T21:27:21.956Z,12.18
2023-03-10T21:29:51.395Z,15.38
2023-03-10T21:32:23.918Z,13.55
2023-03-10T21:34:55.005Z,15.27
2023-03-10T21:37:24.942Z,14.45
2023-03-10T21:39:53.909Z,17.67
2023-03-10T21:42:26.705Z,16.10
2023-03-10T21:44:57.476Z,13.90
2023-03-10T21:47:26.296Z,12.95
2023-03-10T21:49:57.139Z,11.93
2023-03-10T21:52:25.803Z,17.20
2023-03-10T21:54:56.724Z,13.93
2023-03-10T21:57:25.256Z,19.05
2023-03-10T21:59:53.714Z,18.73
2023-03-10T22:02:24.882Z,16.48
2023-03-10T22:04:56.357Z,15.10
2023-03-10T22:07:25.496Z,17.02
2023-03-10T22:09:54.088Z,14.65
2023-03-10T22:12:25.849Z,18.35
2023-03-10T22:14:57.817Z,9.93
2023-03-10T22:17:26.988Z,20.05
2023-03-10T22:19:55.846Z,18.95
2023-03-10T22:22:27.344Z,9.85
2023-03-10T22:24:58.081Z,14.25
2023-03-10T22:27:28.989Z,18.75
2023-03-10T22:29:57.654Z,15.85
2023-03-10T22:32:27.308Z,14.88
2023-03-10T22:34:57.340Z,10.90
2023-03-10T22:37:26.005Z,12.63
2023-03-10T22:39:54.301Z,13.68
2023-03-10T22:42:24.784Z,11.50
2023-03-10T22:44:53.077Z,15.20
2023-03-10T22:47:24.186Z,17.73
2023-03-10T22:49:55.204Z,10.85
2023-03-10T22:52:24.305Z,9.85
2023-03-10T22:54:56.076Z,16.13
2023-03-10T22:57:25.367Z,7.50
2023-03-10T22:59:53.832Z,10.50
2023-03-10T23:02:25.729Z,10.38
2023-03-10T23:04:55.190Z,14.07
2023-03-10T23:07:24.566Z,9.00
2023-03-10T23:09:53.035Z,9.38
2023-03-10T23:12:23.741Z,12.10
2023-03-10T23:14:53.378Z,8.43
2023-03-10T23:17:22.790Z,5.95
2023-03-10T23:19:56.910Z,14.45
2023-03-10T23:22:27.776Z,13.75
2023-03-10T23:24:56.225Z,8.90
2023-03-10T23:27:24.521Z,11.70
2023-03-10T23:29:53.476Z,7.00
2023-03-10T23:32:25.268Z,11.57
2023-03-10T23:34:56.750Z,9.77
2023-03-10T23:37:25.345Z,12.00
2023-03-10T23:39:56.212Z,12.25
2023-03-10T23:42:24.988Z,10.45
2023-03-10T23:44:53.977Z,14.70
2023-03-10T23:47:22.550Z,8.20
2023-03-10T23:49:50.884Z,14.07
2023-03-10T23:52:21.814Z,10.23
2023-03-10T23:54:50.754Z,12.45
2023-03-10T23:57:19.524Z,9.80
2023-03-10T23:59:48.532Z,10.95
